createdAt,value
2022-09-06T00:03:12.298Z,101712.64
2022-09-06T00:08:15.090Z,101712.38
2022-09-06T00:13:17.914Z,101707.36
2022-09-06T00:18:20.872Z,101707.28
2022-09-06T00:23:23.688Z,101706.09
2022-09-06T00:28:26.678Z,101708.96
2022-09-06T00:33:29.542Z,101708.98
2022-09-06T00:38:32.380Z,101709.80
2022-09-06T00:43:35.593Z,101710.61
2022-09-06T00:48:38.425Z,101711.73
2022-09-06T00:53:41.752Z,101712.94
2022-09-06T00:58:45.430Z,101706.81
2022-09-06T01:03:48.199Z,101703.98
2022-09-06T01:09:16.697Z,101704.90
2022-09-06T01:14:22.405Z,101705.23
2022-09-06T01:19:56.113Z,101701.17
2022-09-06T01:25:03.814Z,101698.33
2022-09-06T01:30:09.243Z,101696.58
2022-09-06T01:35:17.997Z,101693.94
2022-09-06T01:40:21.113Z,101696.85
2022-09-06T01:45:34.060Z,101699.27
2022-09-06T01:51:14.303Z,101701.35
2022-09-06T01:56:31.485Z,101700.80
2022-09-06T02:01:47.494Z,101695.98
2022-09-06T02:06:55.085Z,101692.60
2022-09-06T02:12:02.021Z,101694.73
2022-09-06T02:17:05.835Z,101695.50
2022-09-06T02:22:11.605Z,101698.84
2022-09-06T02:27:14.708Z,101697.47
2022-09-06T02:32:20.665Z,101699.77
2022-09-06T02:37:26.172Z,101703.92
2022-09-06T02:42:29.008Z,101703.28
2022-09-06T02:47:31.741Z,101705.64
2022-09-06T02:52:34.434Z,101707.89
2022-09-06T02:57:37.280Z,101705.20
2022-09-06T03:02:40.070Z,101706.33
2022-09-06T03:07:43.028Z,101704.73
2022-09-06T03:12:46.359Z,101700.25
2022-09-06T03:17:49.067Z,101691.14
2022-09-06T03:22:52.835Z,101688.66
2022-09-06T03:27:55.608Z,101694.38
2022-09-06T03:33:02.614Z,101700.79
2022-09-06T03:38:05.891Z,101701.35
2022-09-06T03:43:08.804Z,101702.98
2022-09-06T03:48:11.582Z,101707.52
2022-09-06T03:53:15.023Z,101703.44
2022-09-06T03:58:20.018Z,101704.42
2022-09-06T04:03:22.800Z,101697.39
2022-09-06T04:08:25.844Z,101693.27
2022-09-06T04:13:29.421Z,101687.52
2022-09-06T04:18:32.800Z,101687.22
2022-09-06T04:23:39.766Z,101682.16
2022-09-06T04:28:43.125Z,101689.46
2022-09-06T04:33:46.057Z,101687.98
2022-09-06T04:38:49.122Z,101691.30
2022-09-06T04:43:51.971Z,101691.10
2022-09-06T04:48:55.129Z,101698.23
2022-09-06T04:53:57.927Z,101691.64
2022-09-06T04:59:01.063Z,101691.50
2022-09-06T05:04:03.762Z,101693.05
2022-09-06T05:09:06.514Z,101687.77
2022-09-06T05:14:09.268Z,101685.82
2022-09-06T05:19:12.065Z,101683.92
2022-09-06T05:24:14.813Z,101684.80
2022-09-06T05:29:17.635Z,101684.73
2022-09-06T05:34:20.372Z,101685.41
2022-09-06T05:39:23.987Z,101681.63
2022-09-06T05:44:26.792Z,101679.61
2022-09-06T05:49:30.399Z,101681.81
2022-09-06T05:54:33.327Z,101690.34
2022-09-06T05:59:36.045Z,101682.41
2022-09-06T06:04:38.839Z,101682.10
2022-09-06T06:09:41.907Z,101680.86
2022-09-06T06:14:44.719Z,101679.86
2022-09-06T06:19:47.568Z,101676.64
2022-09-06T06:24:50.296Z,101682.64
2022-09-06T06:29:53.182Z,101687.23
2022-09-06T06:34:55.908Z,101685.45
2022-09-06T06:39:59.125Z,101689.45
2022-09-06T06:45:02.501Z,101685.02
2022-09-06T06:50:06.261Z,101685.34
2022-09-06T06:55:09.814Z,101685.36
2022-09-06T07:00:13.222Z,101691.05
2022-09-06T07:10:38.956Z,101703.02
2022-09-06T07:15:41.753Z,101702.22
2022-09-06T07:26:08.281Z,101706.17
2022-09-06T07:36:34.100Z,101704.75
2022-09-06T07:41:36.869Z,101694.31
2022-09-06T07:46:39.664Z,101691.02
2022-09-06T07:51:43.116Z,101689.88
2022-09-06T07:56:45.962Z,101686.20
2022-09-06T08:01:50.130Z,101688.50
2022-09-06T08:12:16.525Z,101692.39
2022-09-06T08:17:19.258Z,101690.02
2022-09-06T08:22:21.937Z,101688.86
2022-09-06T08:27:24.665Z,101684.84
2022-09-06T08:32:27.380Z,101687.23
2022-09-06T08:37:30.184Z,101681.63
2022-09-06T08:42:33.030Z,101675.52
2022-09-06T08:47:35.799Z,101678.02
2022-09-06T08:53:13.680Z,101672.92
2022-09-06T08:58:40.734Z,101661.93
2022-09-06T09:03:44.311Z,101657.41
2022-09-06T09:09:09.696Z,101654.84
2022-09-06T09:14:30.275Z,101648.61
2022-09-06T09:19:36.745Z,101642.58
2022-09-06T09:24:39.491Z,101640.52
2022-09-06T09:35:21.729Z,101625.39
2022-09-06T09:40:24.482Z,101621.02
2022-09-06T09:45:29.936Z,101618.71
2022-09-06T09:50:34.644Z,101610.21
2022-09-06T09:55:37.485Z,101606.92
2022-09-06T10:00:40.576Z,101598.27
2022-09-06T10:05:43.606Z,101596.69
2022-09-06T10:10:47.479Z,101589.44
2022-09-06T10:15:51.947Z,101581.02
2022-09-06T10:21:08.016Z,101579.70
2022-09-06T10:26:24.307Z,101572.77
2022-09-06T10:31:39.527Z,101564.67
2022-09-06T10:37:00.968Z,101560.52
2022-09-06T10:42:34.882Z,101563.13
2022-09-06T10:48:11.288Z,101561.70
2022-09-06T10:53:48.120Z,101558.33
2022-09-06T11:10:24.462Z,101537.77
2022-09-06T11:15:30.248Z,101533.05
2022-09-06T11:20:43.140Z,101531.36
2022-09-06T11:26:26.842Z,101526.67
2022-09-06T11:37:00.171Z,101520.30
2022-09-06T11:42:06.470Z,101514.32
2022-09-06T11:47:11.462Z,101502.88
2022-09-06T11:52:49.396Z,101499.42
2022-09-06T11:57:57.475Z,101496.15
2022-09-06T12:08:29.189Z,101482.73
2022-09-06T12:13:39.586Z,101473.10
2022-09-06T12:18:48.708Z,101474.09
2022-09-06T12:23:51.444Z,101461.98
2022-09-06T12:28:54.238Z,101461.48
2022-09-06T12:33:57.564Z,101458.52
2022-09-06T12:39:18.196Z,101452.33
2022-09-06T12:44:36.137Z,101442.09
2022-09-06T12:49:38.927Z,101440.46
2022-09-06T12:54:45.556Z,101434.19
2022-09-06T12:59:58.697Z,101434.55
2022-09-06T13:05:11.293Z,101433.80
2022-09-06T13:10:14.784Z,101427.30
2022-09-06T13:15:31.305Z,101424.87
2022-09-06T13:20:34.168Z,101425.45
2022-09-06T13:25:51.603Z,101423.43
2022-09-06T13:31:14.491Z,101427.20
2022-09-06T13:36:23.279Z,101422.30
2022-09-06T13:41:26.015Z,101425.80
2022-09-06T13:46:28.982Z,101426.14
2022-09-06T13:51:31.848Z,101413.25
2022-09-06T13:56:35.264Z,101408.88
2022-09-06T14:01:42.016Z,101409.61
2022-09-06T14:06:45.067Z,101397.26
2022-09-06T14:11:48.486Z,101395.13
2022-09-06T14:16:51.529Z,101388.73
2022-09-06T14:21:54.381Z,101376.48
2022-09-06T14:26:57.221Z,101381.97
2022-09-06T14:31:59.996Z,101377.79
2022-09-06T14:37:02.698Z,101379.64
2022-09-06T14:42:05.828Z,101371.89
2022-09-06T14:47:08.675Z,101367.86
2022-09-06T14:52:11.748Z,101373.26
2022-09-06T14:57:14.581Z,101368.80
2022-09-06T15:02:17.420Z,101363.84
2022-09-06T15:07:20.273Z,101353.44
2022-09-06T15:12:23.299Z,101346.56
2022-09-06T15:17:26.334Z,101339.20
2022-09-06T15:22:29.110Z,101336.80
2022-09-06T15:27:31.947Z,101335.63
2022-09-06T15:32:34.801Z,101325.48
2022-09-06T15:37:37.541Z,101320.57
2022-09-06T15:42:40.431Z,101322.32
2022-09-06T15:47:43.273Z,101321.18
2022-09-06T15:52:46.059Z,101316.68
2022-09-06T15:57:48.781Z,101318.97
2022-09-06T16:02:52.334Z,101311.87
2022-09-06T16:07:55.129Z,101308.54
2022-09-06T16:12:57.867Z,101301.73
2022-09-06T16:18:05.159Z,101299.05
2022-09-06T16:23:07.959Z,101297.26
2022-09-06T16:28:10.748Z,101299.89
2022-09-06T16:33:13.767Z,101291.75
2022-09-06T16:38:16.560Z,101294.28
2022-09-06T16:43:19.519Z,101291.57
2022-09-06T16:48:22.286Z,101293.14
2022-09-06T16:53:25.040Z,101296.27
2022-09-06T16:58:30.003Z,101297.25
2022-09-06T17:03:33.068Z,101299.65
2022-09-06T17:08:36.487Z,101302.55
2022-09-06T17:13:39.366Z,101305.60
2022-09-06T17:18:42.222Z,101303.02
2022-09-06T17:23:45.099Z,101307.84
2022-09-06T17:28:49.010Z,101305.69
2022-09-06T17:33:52.236Z,101309.23
2022-09-06T17:39:04.448Z,101311.89
2022-09-06T17:44:11.053Z,101320.55
2022-09-06T17:49:14.257Z,101325.27
2022-09-06T17:54:17.210Z,101325.98
2022-09-06T17:59:20.064Z,101325.35
2022-09-06T18:04:22.887Z,101327.63
2022-09-06T18:09:25.857Z,101335.77
2022-09-06T18:14:28.999Z,101336.59
2022-09-06T18:19:32.300Z,101332.57
2022-09-06T18:24:35.062Z,101332.81
2022-09-06T18:29:37.788Z,101332.33
2022-09-06T18:34:40.579Z,101334.92
2022-09-06T18:39:43.404Z,101339.21
2022-09-06T18:44:46.287Z,101339.29
2022-09-06T18:49:49.114Z,101345.96
2022-09-06T18:54:51.865Z,101349.48
2022-09-06T18:59:54.737Z,101353.52
2022-09-06T19:04:59.345Z,101349.61
2022-09-06T19:10:02.209Z,101345.36
2022-09-06T19:15:05.548Z,101340.72
2022-09-06T19:20:10.651Z,101340.81
2022-09-06T19:25:13.530Z,101340.24
2022-09-06T19:30:17.793Z,101340.77
2022-09-06T19:35:20.936Z,101339.94
2022-09-06T19:40:23.707Z,101338.52
2022-09-06T19:45:26.606Z,101336.46
2022-09-06T19:50:29.856Z,101333.86
2022-09-06T19:55:34.068Z,101334.55
2022-09-06T20:00:40.403Z,101332.50
2022-09-06T20:05:43.272Z,101330.38
2022-09-06T20:10:57.894Z,101329.25
2022-09-06T20:16:05.582Z,101327.71
2022-09-06T20:21:08.605Z,101329.70
2022-09-06T20:26:14.997Z,101327.98
2022-09-06T20:31:18.525Z,101326.05
2022-09-06T20:36:21.580Z,101329.07
2022-09-06T20:41:25.711Z,101333.09
2022-09-06T20:46:31.390Z,101328.79
2022-09-06T20:51:35.717Z,101324.27
2022-09-06T20:56:40.141Z,101325.94
2022-09-06T21:01:45.329Z,101319.52
2022-09-06T21:06:51.016Z,101318.02
2022-09-06T21:11:54.379Z,101315.13
2022-09-06T21:16:57.237Z,101316.14
2022-09-06T21:21:59.995Z,101315.20
2022-09-06T21:27:02.804Z,101316.83
2022-09-06T21:32:05.558Z,101319.43
2022-09-06T21:37:08.299Z,101313.06
2022-09-06T21:42:11.324Z,101314.10
2022-09-06T21:47:14.612Z,101308.88
2022-09-06T21:52:17.416Z,101306.05
2022-09-06T21:57:20.161Z,101302.36
2022-09-06T22:02:23.814Z,101302.45
2022-09-06T22:07:26.607Z,101303.73
2022-09-06T22:12:29.444Z,101306.19
2022-09-06T22:17:32.219Z,101305.92
2022-09-06T22:22:35.107Z,101304.30
2022-09-06T22:27:37.904Z,101300.45
2022-09-06T22:32:40.826Z,101302.59
2022-09-06T22:37:43.588Z,101304.08
2022-09-06T22:42:46.397Z,101306.54
2022-09-06T22:47:50.585Z,101309.29
2022-09-06T22:52:54.045Z,101311.22
2022-09-06T22:57:56.883Z,101305.85
2022-09-06T23:02:59.651Z,101302.13
2022-09-06T23:08:03.636Z,101302.38
2022-09-06T23:13:07.900Z,101302.48
2022-09-06T23:18:10.732Z,101300.85
2022-09-06T23:23:13.780Z,101300.15
2022-09-06T23:28:16.504Z,101299.98
2022-09-06T23:33:19.245Z,101297.04
2022-09-06T23:38:22.102Z,101300.48
2022-09-06T23:43:25.517Z,101295.89
2022-09-06T23:48:28.410Z,101291.52
2022-09-06T23:53:31.519Z,101286.02
2022-09-06T23:58:35.500Z,101282.55
